sensor_id;sensor_type;location;lat;lon;timestamp;P1;durP1;ratioP1;P2;durP2;ratioP2
33381;SDS011;21342;48.786;9.166;2022-07-19T00:00:07;4.87;;;4.27;;
33381;SDS011;21342;48.786;9.166;2022-07-19T00:02:37;7.90;;;4.57;;
33381;SDS011;21342;48.786;9.166;2022-07-19T00:05:05;5.50;;;5.00;;
33381;SDS011;21342;48.786;9.166;2022-07-19T00:07:33;7.57;;;4.67;;
33381;SDS011;21342;48.786;9.166;2022-07-19T00:10:01;5.37;;;3.90;;
33381;SDS011;21342;48.786;9.166;2022-07-19T00:12:30;4.87;;;4.33;;
33381;SDS011;21342;48.786;9.166;2022-07-19T00:14:59;6.50;;;4.90;;
33381;SDS011;21342;48.786;9.166;2022-07-19T00:17:26;13.23;;;5.30;;
33381;SDS011;21342;48.786;9.166;2022-07-19T00:19:53;6.20;;;4.90;;
33381;SDS011;21342;48.786;9.166;2022-07-19T00:22:20;6.07;;;4.30;;
33381;SDS011;21342;48.786;9.166;2022-07-19T00:24:47;7.10;;;5.60;;
33381;SDS011;21342;48.786;9.166;2022-07-19T00:27:15;5.00;;;4.50;;
33381;SDS011;21342;48.786;9.166;2022-07-19T00:29:42;7.70;;;4.90;;
33381;SDS011;21342;48.786;9.166;2022-07-19T00:32:10;6.33;;;4.77;;
33381;SDS011;21342;48.786;9.166;2022-07-19T00:34:37;5.40;;;4.60;;
33381;SDS011;21342;48.786;9.166;2022-07-19T00:37:04;4.87;;;4.47;;
33381;SDS011;21342;48.786;9.166;2022-07-19T00:39:32;4.23;;;3.80;;
33381;SDS011;21342;48.786;9.166;2022-07-19T00:41:59;5.43;;;4.20;;
33381;SDS011;21342;48.786;9.166;2022-07-19T00:44:26;5.27;;;4.40;;
33381;SDS011;21342;48.786;9.166;2022-07-19T00:46:53;6.10;;;5.50;;
33381;SDS011;21342;48.786;9.166;2022-07-19T00:49:26;5.00;;;4.13;;
33381;SDS011;21342;48.786;9.166;2022-07-19T00:51:53;5.03;;;4.53;;
33381;SDS011;21342;48.786;9.166;2022-07-19T00:54:22;6.43;;;4.67;;
33381;SDS011;21342;48.786;9.166;2022-07-19T00:56:51;9.10;;;4.73;;
33381;SDS011;21342;48.786;9.166;2022-07-19T00:59:19;6.83;;;4.40;;
33381;SDS011;21342;48.786;9.166;2022-07-19T01:01:47;5.43;;;4.90;;
33381;SDS011;21342;48.786;9.166;2022-07-19T01:04:15;5.80;;;4.90;;
33381;SDS011;21342;48.786;9.166;2022-07-19T01:06:44;5.33;;;4.20;;
33381;SDS011;21342;48.786;9.166;2022-07-19T01:09:11;6.40;;;4.87;;
33381;SDS011;21342;48.786;9.166;2022-07-19T01:11:39;7.30;;;4.77;;
33381;SDS011;21342;48.786;9.166;2022-07-19T01:14:06;6.73;;;4.67;;
33381;SDS011;21342;48.786;9.166;2022-07-19T01:16:33;5.40;;;4.90;;
33381;SDS011;21342;48.786;9.166;2022-07-19T01:19:01;5.80;;;5.30;;
33381;SDS011;21342;48.786;9.166;2022-07-19T01:21:32;5.43;;;4.60;;
33381;SDS011;21342;48.786;9.166;2022-07-19T01:23:59;6.00;;;5.23;;
33381;SDS011;21342;48.786;9.166;2022-07-19T01:26:27;5.40;;;4.80;;
33381;SDS011;21342;48.786;9.166;2022-07-19T01:28:54;4.87;;;4.40;;
33381;SDS011;21342;48.786;9.166;2022-07-19T01:31:22;5.60;;;4.27;;
33381;SDS011;21342;48.786;9.166;2022-07-19T01:33:49;4.53;;;4.13;;
33381;SDS011;21342;48.786;9.166;2022-07-19T01:36:16;4.70;;;4.30;;
33381;SDS011;21342;48.786;9.166;2022-07-19T01:38:44;6.43;;;4.83;;
33381;SDS011;21342;48.786;9.166;2022-07-19T01:41:12;5.70;;;4.47;;
33381;SDS011;21342;48.786;9.166;2022-07-19T01:43:39;5.20;;;4.80;;
33381;SDS011;21342;48.786;9.166;2022-07-19T01:46:06;5.33;;;4.53;;
33381;SDS011;21342;48.786;9.166;2022-07-19T01:48:33;5.33;;;4.67;;
33381;SDS011;21342;48.786;9.166;2022-07-19T01:51:01;6.77;;;4.97;;
33381;SDS011;21342;48.786;9.166;2022-07-19T01:53:28;5.63;;;5.13;;
33381;SDS011;21342;48.786;9.166;2022-07-19T01:55:57;9.00;;;5.10;;
33381;SDS011;21342;48.786;9.166;2022-07-19T01:58:24;4.97;;;4.57;;
33381;SDS011;21342;48.786;9.166;2022-07-19T02:00:51;4.73;;;4.33;;
33381;SDS011;21342;48.786;9.166;2022-07-19T02:03:18;5.77;;;5.27;;
33381;SDS011;21342;48.786;9.166;2022-07-19T02:05:45;4.67;;;4.30;;
33381;SDS011;21342;48.786;9.166;2022-07-19T02:08:13;7.47;;;5.87;;
33381;SDS011;21342;48.786;9.166;2022-07-19T02:10:40;5.90;;;4.80;;
33381;SDS011;21342;48.786;9.166;2022-07-19T02:13:08;7.93;;;4.90;;
33381;SDS011;21342;48.786;9.166;2022-07-19T02:15:35;9.27;;;5.63;;
33381;SDS011;21342;48.786;9.166;2022-07-19T02:18:03;4.60;;;4.20;;
33381;SDS011;21342;48.786;9.166;2022-07-19T02:20:30;5.10;;;4.60;;
33381;SDS011;21342;48.786;9.166;2022-07-19T02:22:57;6.93;;;5.30;;
33381;SDS011;21342;48.786;9.166;2022-07-19T02:25:24;5.57;;;5.00;;
33381;SDS011;21342;48.786;9.166;2022-07-19T02:27:52;9.70;;;5.83;;
33381;SDS011;21342;48.786;9.166;2022-07-19T02:30:21;7.13;;;4.60;;
33381;SDS011;21342;48.786;9.166;2022-07-19T02:32:48;5.70;;;4.70;;
33381;SDS011;21342;48.786;9.166;2022-07-19T02:35:16;5.30;;;4.80;;
33381;SDS011;21342;48.786;9.166;2022-07-19T02:37:43;7.03;;;4.23;;
33381;SDS011;21342;48.786;9.166;2022-07-19T02:40:11;5.27;;;4.80;;
33381;SDS011;21342;48.786;9.166;2022-07-19T02:42:39;4.90;;;4.50;;
33381;SDS011;21342;48.786;9.166;2022-07-19T02:45:06;6.97;;;4.37;;
33381;SDS011;21342;48.786;9.166;2022-07-19T02:47:35;5.97;;;4.70;;
33381;SDS011;21342;48.786;9.166;2022-07-19T02:50:03;5.57;;;5.00;;
33381;SDS011;21342;48.786;9.166;2022-07-19T02:52:31;4.20;;;3.80;;
33381;SDS011;21342;48.786;9.166;2022-07-19T02:54:58;4.73;;;4.30;;
33381;SDS011;21342;48.786;9.166;2022-07-19T02:57:26;5.13;;;4.63;;
33381;SDS011;21342;48.786;9.166;2022-07-19T02:59:53;12.23;;;6.23;;
33381;SDS011;21342;48.786;9.166;2022-07-19T03:02:20;7.20;;;5.33;;
33381;SDS011;21342;48.786;9.166;2022-07-19T03:04:49;6.10;;;4.13;;
33381;SDS011;21342;48.786;9.166;2022-07-19T03:07:16;5.27;;;4.73;;
33381;SDS011;21342;48.786;9.166;2022-07-19T03:09:43;4.73;;;4.37;;
33381;SDS011;21342;48.786;9.166;2022-07-19T03:12:11;4.27;;;3.87;;
33381;SDS011;21342;48.786;9.166;2022-07-19T03:14:38;7.43;;;4.50;;
33381;SDS011;21342;48.786;9.166;2022-07-19T03:17:05;5.67;;;4.57;;
33381;SDS011;21342;48.786;9.166;2022-07-19T03:19:32;4.53;;;4.13;;
33381;SDS011;21342;48.786;9.166;2022-07-19T03:22:01;6.53;;;5.47;;
33381;SDS011;21342;48.786;9.166;2022-07-19T03:24:28;5.80;;;4.73;;
33381;SDS011;21342;48.786;9.166;2022-07-19T03:26:55;8.43;;;5.13;;
33381;SDS011;21342;48.786;9.166;2022-07-19T03:29:23;5.30;;;4.60;;
33381;SDS011;21342;48.786;9.166;2022-07-19T03:31:50;7.30;;;4.63;;
33381;SDS011;21342;48.786;9.166;2022-07-19T03:34:17;6.03;;;4.70;;
33381;SDS011;21342;48.786;9.166;2022-07-19T03:36:44;10.60;;;4.77;;
33381;SDS011;21342;48.786;9.166;2022-07-19T03:39:13;6.57;;;5.17;;
33381;SDS011;21342;48.786;9.166;2022-07-19T03:41:41;7.50;;;5.37;;
33381;SDS011;21342;48.786;9.166;2022-07-19T03:44:08;7.30;;;5.50;;
33381;SDS011;21342;48.786;9.166;2022-07-19T03:46:35;4.93;;;4.40;;
33381;SDS011;21342;48.786;9.166;2022-07-19T03:49:02;6.57;;;4.70;;
33381;SDS011;21342;48.786;9.166;2022-07-19T03:51:29;6.83;;;4.90;;
33381;SDS011;21342;48.786;9.166;2022-07-19T03:53:57;8.97;;;4.77;;
33381;SDS011;21342;48.786;9.166;2022-07-19T03:56:25;5.70;;;4.70;;
33381;SDS011;21342;48.786;9.166;2022-07-19T03:58:52;14.13;;;5.07;;
33381;SDS011;21342;48.786;9.166;2022-07-19T04:01:19;5.67;;;5.00;;
33381;SDS011;21342;48.786;9.166;2022-07-19T04:03:46;5.30;;;4.80;;
33381;SDS011;21342;48.786;9.166;2022-07-19T04:06:14;5.60;;;4.47;;
33381;SDS011;21342;48.786;9.166;2022-07-19T04:08:41;7.17;;;5.77;;
33381;SDS011;21342;48.786;9.166;2022-07-19T04:11:08;6.63;;;4.90;;
33381;SDS011;21342;48.786;9.166;2022-07-19T04:13:36;4.63;;;4.27;;
33381;SDS011;21342;48.786;9.166;2022-07-19T04:16:04;5.50;;;4.30;;
33381;SDS011;21342;48.786;9.166;2022-07-19T04:18:31;12.53;;;5.23;;
33381;SDS011;21342;48.786;9.166;2022-07-19T04:20:58;6.00;;;4.53;;
33381;SDS011;21342;48.786;9.166;2022-07-19T04:23:25;5.83;;;5.30;;
33381;SDS011;21342;48.786;9.166;2022-07-19T04:25:53;6.27;;;5.63;;
33381;SDS011;21342;48.786;9.166;2022-07-19T04:28:20;8.23;;;5.20;;
33381;SDS011;21342;48.786;9.166;2022-07-19T04:30:49;7.53;;;4.73;;
33381;SDS011;21342;48.786;9.166;2022-07-19T04:33:17;5.03;;;4.40;;
33381;SDS011;21342;48.786;9.166;2022-07-19T04:35:45;6.50;;;4.63;;
33381;SDS011;21342;48.786;9.166;2022-07-19T04:38:12;8.20;;;5.03;;
33381;SDS011;21342;48.786;9.166;2022-07-19T04:40:39;6.27;;;5.03;;
33381;SDS011;21342;48.786;9.166;2022-07-19T04:43:07;5.10;;;4.60;;
33381;SDS011;21342;48.786;9.166;2022-07-19T04:45:34;5.27;;;4.83;;
33381;SDS011;21342;48.786;9.166;2022-07-19T04:48:03;5.37;;;4.57;;
33381;SDS011;21342;48.786;9.166;2022-07-19T04:50:31;5.73;;;4.70;;
33381;SDS011;21342;48.786;9.166;2022-07-19T04:52:58;10.10;;;4.67;;
33381;SDS011;21342;48.786;9.166;2022-07-19T04:55:25;7.63;;;5.30;;
33381;SDS011;21342;48.786;9.166;2022-07-19T04:57:52;5.90;;;4.40;;
33381;SDS011;21342;48.786;9.166;2022-07-19T05:00:19;6.43;;;4.90;;
33381;SDS011;21342;48.786;9.166;2022-07-19T05:02:46;5.43;;;5.03;;
33381;SDS011;21342;48.786;9.166;2022-07-19T05:05:15;6.30;;;4.97;;
33381;SDS011;21342;48.786;9.166;2022-07-19T05:07:42;7.40;;;5.10;;
33381;SDS011;21342;48.786;9.166;2022-07-19T05:10:09;10.60;;;4.60;;
33381;SDS011;21342;48.786;9.166;2022-07-19T05:12:37;9.03;;;5.33;;
33381;SDS011;21342;48.786;9.166;2022-07-19T05:15:04;8.50;;;5.13;;
33381;SDS011;21342;48.786;9.166;2022-07-19T05:17:33;8.40;;;5.20;;
33381;SDS011;21342;48.786;9.166;2022-07-19T05:20:00;6.80;;;5.60;;
33381;SDS011;21342;48.786;9.166;2022-07-19T05:22:29;20.67;;;6.20;;
33381;SDS011;21342;48.786;9.166;2022-07-19T05:24:56;10.30;;;5.03;;
33381;SDS011;21342;48.786;9.166;2022-07-19T05:27:23;6.90;;;4.70;;
33381;SDS011;21342;48.786;9.166;2022-07-19T05:29:51;7.20;;;5.50;;
33381;SDS011;21342;48.786;9.166;2022-07-19T05:32:18;6.50;;;5.30;;
33381;SDS011;21342;48.786;9.166;2022-07-19T05:34:45;6.60;;;5.27;;
33381;SDS011;21342;48.786;9.166;2022-07-19T05:37:12;13.63;;;5.67;;
33381;SDS011;21342;48.786;9.166;2022-07-19T05:39:41;8.20;;;5.57;;
33381;SDS011;21342;48.786;9.166;2022-07-19T05:42:08;6.23;;;5.63;;
33381;SDS011;21342;48.786;9.166;2022-07-19T05:44:35;7.17;;;4.60;;
33381;SDS011;21342;48.786;9.166;2022-07-19T05:47:02;8.47;;;5.87;;
33381;SDS011;21342;48.786;9.166;2022-07-19T05:49:30;8.67;;;5.70;;
33381;SDS011;21342;48.786;9.166;2022-07-19T05:51:57;5.80;;;5.30;;
33381;SDS011;21342;48.786;9.166;2022-07-19T05:54:24;7.40;;;5.90;;
33381;SDS011;21342;48.786;9.166;2022-07-19T05:56:53;7.07;;;6.37;;
33381;SDS011;21342;48.786;9.166;2022-07-19T05:59:21;6.80;;;4.97;;
33381;SDS011;21342;48.786;9.166;2022-07-19T06:01:48;8.60;;;6.40;;
33381;SDS011;21342;48.786;9.166;2022-07-19T06:04:15;8.40;;;6.10;;
33381;SDS011;21342;48.786;9.166;2022-07-19T06:06:43;10.83;;;6.03;;
33381;SDS011;21342;48.786;9.166;2022-07-19T06:09:10;7.10;;;5.63;;
33381;SDS011;21342;48.786;9.166;2022-07-19T06:11:38;8.13;;;5.23;;
33381;SDS011;21342;48.786;9.166;2022-07-19T06:14:07;6.83;;;5.23;;
33381;SDS011;21342;48.786;9.166;2022-07-19T06:16:35;5.30;;;4.43;;
33381;SDS011;21342;48.786;9.166;2022-07-19T06:19:03;5.93;;;5.30;;
33381;SDS011;21342;48.786;9.166;2022-07-19T06:21:30;5.47;;;4.70;;
33381;SDS011;21342;48.786;9.166;2022-07-19T06:23:58;9.20;;;5.47;;
33381;SDS011;21342;48.786;9.166;2022-07-19T06:26:26;12.90;;;6.10;;
33381;SDS011;21342;48.786;9.166;2022-07-19T06:28:53;6.63;;;5.20;;
33381;SDS011;21342;48.786;9.166;2022-07-19T06:31:22;6.13;;;4.73;;
33381;SDS011;21342;48.786;9.166;2022-07-19T06:33:50;5.80;;;5.10;;
33381;SDS011;21342;48.786;9.166;2022-07-19T06:36:18;11.80;;;5.20;;
33381;SDS011;21342;48.786;9.166;2022-07-19T06:38:45;8.00;;;5.00;;
33381;SDS011;21342;48.786;9.166;2022-07-19T06:41:14;8.67;;;5.93;;
33381;SDS011;21342;48.786;9.166;2022-07-19T06:43:42;10.80;;;4.83;;
33381;SDS011;21342;48.786;9.166;2022-07-19T06:46:10;12.00;;;6.10;;
33381;SDS011;21342;48.786;9.166;2022-07-19T06:48:38;7.80;;;5.80;;
33381;SDS011;21342;48.786;9.166;2022-07-19T06:51:06;7.37;;;4.97;;
33381;SDS011;21342;48.786;9.166;2022-07-19T06:53:34;13.77;;;5.70;;
33381;SDS011;21342;48.786;9.166;2022-07-19T06:56:02;6.23;;;5.23;;
33381;SDS011;21342;48.786;9.166;2022-07-19T06:58:29;6.90;;;4.70;;
33381;SDS011;21342;48.786;9.166;2022-07-19T07:00:57;6.57;;;5.97;;
33381;SDS011;21342;48.786;9.166;2022-07-19T07:03:25;9.30;;;4.50;;
33381;SDS011;21342;48.786;9.166;2022-07-19T07:05:54;6.93;;;5.20;;
33381;SDS011;21342;48.786;9.166;2022-07-19T07:08:21;9.30;;;5.63;;
33381;SDS011;21342;48.786;9.166;2022-07-19T07:10:48;8.30;;;5.07;;
33381;SDS011;21342;48.786;9.166;2022-07-19T07:13:16;7.27;;;5.03;;
33381;SDS011;21342;48.786;9.166;2022-07-19T07:15:43;10.40;;;5.50;;
33381;SDS011;21342;48.786;9.166;2022-07-19T07:18:10;9.80;;;6.30;;
33381;SDS011;21342;48.786;9.166;2022-07-19T07:20:38;7.83;;;4.60;;
33381;SDS011;21342;48.786;9.166;2022-07-19T07:23:06;8.30;;;5.13;;
33381;SDS011;21342;48.786;9.166;2022-07-19T07:25:33;9.20;;;4.73;;
33381;SDS011;21342;48.786;9.166;2022-07-19T07:28:01;6.00;;;4.90;;
33381;SDS011;21342;48.786;9.166;2022-07-19T07:30:28;11.63;;;4.90;;
33381;SDS011;21342;48.786;9.166;2022-07-19T07:32:55;7.07;;;5.07;;
33381;SDS011;21342;48.786;9.166;2022-07-19T07:35:22;7.40;;;4.10;;
33381;SDS011;21342;48.786;9.166;2022-07-19T07:37:53;7.20;;;4.90;;
33381;SDS011;21342;48.786;9.166;2022-07-19T07:40:44;12.20;;;5.80;;
33381;SDS011;21342;48.786;9.166;2022-07-19T07:43:34;6.10;;;4.20;;
33381;SDS011;21342;48.786;9.166;2022-07-19T07:46:22;5.03;;;3.87;;
33381;SDS011;21342;48.786;9.166;2022-07-19T07:48:49;12.27;;;4.90;;
33381;SDS011;21342;48.786;9.166;2022-07-19T07:51:16;3.87;;;3.43;;
33381;SDS011;21342;48.786;9.166;2022-07-19T07:53:43;4.90;;;3.73;;
33381;SDS011;21342;48.786;9.166;2022-07-19T07:56:12;4.80;;;3.60;;
33381;SDS011;21342;48.786;9.166;2022-07-19T07:58:39;5.40;;;3.80;;
33381;SDS011;21342;48.786;9.166;2022-07-19T08:01:07;4.17;;;3.83;;
33381;SDS011;21342;48.786;9.166;2022-07-19T08:03:34;4.67;;;3.37;;
33381;SDS011;21342;48.786;9.166;2022-07-19T08:06:01;4.13;;;2.90;;
33381;SDS011;21342;48.786;9.166;2022-07-19T08:08:28;4.27;;;3.67;;
33381;SDS011;21342;48.786;9.166;2022-07-19T08:10:56;3.67;;;3.27;;
33381;SDS011;21342;48.786;9.166;2022-07-19T08:13:25;4.00;;;3.10;;
33381;SDS011;21342;48.786;9.166;2022-07-19T08:15:52;5.00;;;3.50;;
33381;SDS011;21342;48.786;9.166;2022-07-19T08:18:19;3.57;;;2.73;;
33381;SDS011;21342;48.786;9.166;2022-07-19T08:20:46;3.20;;;2.70;;
33381;SDS011;21342;48.786;9.166;2022-07-19T08:23:14;5.90;;;2.43;;
33381;SDS011;21342;48.786;9.166;2022-07-19T08:25:41;6.30;;;2.90;;
33381;SDS011;21342;48.786;9.166;2022-07-19T08:28:08;2.50;;;2.30;;
33381;SDS011;21342;48.786;9.166;2022-07-19T08:30:37;5.47;;;2.53;;
33381;SDS011;21342;48.786;9.166;2022-07-19T08:33:04;6.17;;;2.63;;
33381;SDS011;21342;48.786;9.166;2022-07-19T08:35:33;2.60;;;2.40;;
33381;SDS011;21342;48.786;9.166;2022-07-19T08:38:01;2.70;;;2.50;;
33381;SDS011;21342;48.786;9.166;2022-07-19T08:40:28;3.10;;;2.67;;
33381;SDS011;21342;48.786;9.166;2022-07-19T08:42:59;3.60;;;2.60;;
33381;SDS011;21342;48.786;9.166;2022-07-19T08:45:30;3.93;;;2.60;;
33381;SDS011;21342;48.786;9.166;2022-07-19T08:47:59;2.63;;;2.43;;
33381;SDS011;21342;48.786;9.166;2022-07-19T08:50:26;5.60;;;2.70;;
33381;SDS011;21342;48.786;9.166;2022-07-19T08:52:55;2.23;;;2.03;;
33381;SDS011;21342;48.786;9.166;2022-07-19T08:55:24;3.67;;;2.47;;
33381;SDS011;21342;48.786;9.166;2022-07-19T08:57:51;4.37;;;2.70;;
33381;SDS011;21342;48.786;9.166;2022-07-19T09:00:26;5.33;;;2.30;;
33381;SDS011;21342;48.786;9.166;2022-07-19T09:02:54;2.90;;;2.67;;
33381;SDS011;21342;48.786;9.166;2022-07-19T09:05:24;9.10;;;2.70;;
33381;SDS011;21342;48.786;9.166;2022-07-19T09:08:05;3.20;;;2.80;;
33381;SDS011;21342;48.786;9.166;2022-07-19T09:10:35;2.30;;;2.10;;
33381;SDS011;21342;48.786;9.166;2022-07-19T09:13:05;4.20;;;2.43;;
33381;SDS011;21342;48.786;9.166;2022-07-19T09:15:43;5.50;;;3.03;;
33381;SDS011;21342;48.786;9.166;2022-07-19T09:18:13;3.53;;;2.63;;
33381;SDS011;21342;48.786;9.166;2022-07-19T09:20:44;2.70;;;2.50;;
33381;SDS011;21342;48.786;9.166;2022-07-19T09:23:12;2.97;;;2.63;;
33381;SDS011;21342;48.786;9.166;2022-07-19T09:25:41;4.47;;;2.90;;
33381;SDS011;21342;48.786;9.166;2022-07-19T09:28:10;3.03;;;2.70;;
33381;SDS011;21342;48.786;9.166;2022-07-19T09:30:39;3.07;;;2.77;;
33381;SDS011;21342;48.786;9.166;2022-07-19T09:33:08;2.80;;;2.60;;
33381;SDS011;21342;48.786;9.166;2022-07-19T09:35:38;10.50;;;3.27;;
33381;SDS011;21342;48.786;9.166;2022-07-19T09:38:15;6.73;;;2.87;;
33381;SDS011;21342;48.786;9.166;2022-07-19T09:40:44;6.23;;;3.47;;
33381;SDS011;21342;48.786;9.166;2022-07-19T09:43:12;4.07;;;3.50;;
33381;SDS011;21342;48.786;9.166;2022-07-19T09:45:39;3.57;;;3.27;;
33381;SDS011;21342;48.786;9.166;2022-07-19T09:48:07;3.77;;;2.70;;
33381;SDS011;21342;48.786;9.166;2022-07-19T09:50:34;3.17;;;2.83;;
33381;SDS011;21342;48.786;9.166;2022-07-19T09:53:04;7.83;;;3.37;;
33381;SDS011;21342;48.786;9.166;2022-07-19T09:55:34;4.00;;;3.70;;
33381;SDS011;21342;48.786;9.166;2022-07-19T09:58:02;3.80;;;2.87;;
33381;SDS011;21342;48.786;9.166;2022-07-19T10:00:31;3.33;;;3.03;;
33381;SDS011;21342;48.786;9.166;2022-07-19T10:02:59;5.23;;;3.30;;
33381;SDS011;21342;48.786;9.166;2022-07-19T10:05:27;5.40;;;3.60;;
33381;SDS011;21342;48.786;9.166;2022-07-19T10:07:56;4.17;;;3.37;;
33381;SDS011;21342;48.786;9.166;2022-07-19T10:10:24;4.43;;;3.53;;
33381;SDS011;21342;48.786;9.166;2022-07-19T10:12:57;4.07;;;3.27;;
33381;SDS011;21342;48.786;9.166;2022-07-19T10:15:25;4.60;;;3.40;;
33381;SDS011;21342;48.786;9.166;2022-07-19T10:20:37;3.43;;;3.13;;
33381;SDS011;21342;48.786;9.166;2022-07-19T10:23:05;4.07;;;3.57;;
33381;SDS011;21342;48.786;9.166;2022-07-19T10:25:40;3.37;;;2.77;;
33381;SDS011;21342;48.786;9.166;2022-07-19T10:28:29;4.83;;;3.20;;
33381;SDS011;21342;48.786;9.166;2022-07-19T10:30:59;4.50;;;3.50;;
33381;SDS011;21342;48.786;9.166;2022-07-19T10:33:31;3.50;;;3.10;;
33381;SDS011;21342;48.786;9.166;2022-07-19T10:44:35;4.47;;;3.40;;
33381;SDS011;21342;48.786;9.166;2022-07-19T10:47:23;3.90;;;3.10;;
33381;SDS011;21342;48.786;9.166;2022-07-19T10:56:29;4.03;;;3.33;;
33381;SDS011;21342;48.786;9.166;2022-07-19T10:59:02;5.20;;;3.77;;
33381;SDS011;21342;48.786;9.166;2022-07-19T11:01:31;3.23;;;2.70;;
33381;SDS011;21342;48.786;9.166;2022-07-19T11:06:50;4.30;;;3.27;;
33381;SDS011;21342;48.786;9.166;2022-07-19T11:09:38;4.00;;;3.70;;
33381;SDS011;21342;48.786;9.166;2022-07-19T11:12:30;2.93;;;2.63;;
33381;SDS011;21342;48.786;9.166;2022-07-19T11:14:59;4.63;;;4.23;;
33381;SDS011;21342;48.786;9.166;2022-07-19T11:17:29;6.17;;;3.27;;
33381;SDS011;21342;48.786;9.166;2022-07-19T11:19:58;3.80;;;3.43;;
33381;SDS011;21342;48.786;9.166;2022-07-19T11:22:32;3.73;;;3.47;;
33381;SDS011;21342;48.786;9.166;2022-07-19T11:25:04;7.63;;;3.90;;
33381;SDS011;21342;48.786;9.166;2022-07-19T11:27:32;4.00;;;3.20;;
33381;SDS011;21342;48.786;9.166;2022-07-19T11:30:06;4.30;;;3.47;;
33381;SDS011;21342;48.786;9.166;2022-07-19T11:32:35;2.90;;;2.70;;
33381;SDS011;21342;48.786;9.166;2022-07-19T11:35:04;4.13;;;2.87;;
33381;SDS011;21342;48.786;9.166;2022-07-19T11:37:34;3.97;;;3.50;;
33381;SDS011;21342;48.786;9.166;2022-07-19T11:40:04;3.30;;;3.00;;
33381;SDS011;21342;48.786;9.166;2022-07-19T11:42:34;3.70;;;3.40;;
33381;SDS011;21342;48.786;9.166;2022-07-19T11:45:12;5.57;;;3.30;;
33381;SDS011;21342;48.786;9.166;2022-07-19T11:47:42;3.90;;;3.50;;
33381;SDS011;21342;48.786;9.166;2022-07-19T11:50:12;4.17;;;3.03;;
33381;SDS011;21342;48.786;9.166;2022-07-19T11:52:41;2.90;;;2.70;;
33381;SDS011;21342;48.786;9.166;2022-07-19T11:55:09;3.50;;;3.13;;
33381;SDS011;21342;48.786;9.166;2022-07-19T11:57:37;3.90;;;2.70;;
33381;SDS011;21342;48.786;9.166;2022-07-19T12:00:06;5.20;;;4.03;;
33381;SDS011;21342;48.786;9.166;2022-07-19T12:02:53;6.03;;;3.47;;
33381;SDS011;21342;48.786;9.166;2022-07-19T12:05:25;3.87;;;3.47;;
33381;SDS011;21342;48.786;9.166;2022-07-19T12:07:53;8.43;;;3.10;;
33381;SDS011;21342;48.786;9.166;2022-07-19T12:10:39;3.40;;;3.07;;
33381;SDS011;21342;48.786;9.166;2022-07-19T12:13:09;4.50;;;3.37;;
33381;SDS011;21342;48.786;9.166;2022-07-19T12:15:48;3.47;;;2.77;;
33381;SDS011;21342;48.786;9.166;2022-07-19T12:18:18;3.80;;;3.30;;
33381;SDS011;21342;48.786;9.166;2022-07-19T12:27:02;10.67;;;3.37;;
33381;SDS011;21342;48.786;9.166;2022-07-19T12:29:32;3.53;;;3.23;;
33381;SDS011;21342;48.786;9.166;2022-07-19T12:32:01;4.00;;;2.80;;
33381;SDS011;21342;48.786;9.166;2022-07-19T12:34:40;3.60;;;3.23;;
33381;SDS011;21342;48.786;9.166;2022-07-19T12:37:21;7.73;;;3.73;;
33381;SDS011;21342;48.786;9.166;2022-07-19T12:39:55;4.90;;;3.57;;
33381;SDS011;21342;48.786;9.166;2022-07-19T12:42:24;4.30;;;3.30;;
33381;SDS011;21342;48.786;9.166;2022-07-19T12:44:51;4.00;;;3.30;;
33381;SDS011;21342;48.786;9.166;2022-07-19T12:47:18;4.00;;;3.30;;
33381;SDS011;21342;48.786;9.166;2022-07-19T12:49:46;6.20;;;3.80;;
33381;SDS011;21342;48.786;9.166;2022-07-19T12:52:14;6.30;;;3.80;;
33381;SDS011;21342;48.786;9.166;2022-07-19T12:54:43;5.60;;;3.57;;
33381;SDS011;21342;48.786;9.166;2022-07-19T12:57:10;8.23;;;3.90;;
33381;SDS011;21342;48.786;9.166;2022-07-19T12:59:37;6.97;;;3.50;;
33381;SDS011;21342;48.786;9.166;2022-07-19T13:02:08;3.87;;;3.57;;
33381;SDS011;21342;48.786;9.166;2022-07-19T13:04:36;6.10;;;3.50;;
33381;SDS011;21342;48.786;9.166;2022-07-19T13:07:05;4.60;;;4.07;;
33381;SDS011;21342;48.786;9.166;2022-07-19T13:09:32;3.83;;;3.30;;
33381;SDS011;21342;48.786;9.166;2022-07-19T13:12:01;8.33;;;4.10;;
33381;SDS011;21342;48.786;9.166;2022-07-19T13:14:30;4.47;;;4.03;;
33381;SDS011;21342;48.786;9.166;2022-07-19T13:16:58;3.90;;;3.60;;
33381;SDS011;21342;48.786;9.166;2022-07-19T13:19:25;6.20;;;3.63;;
33381;SDS011;21342;48.786;9.166;2022-07-19T13:21:53;8.27;;;3.80;;
33381;SDS011;21342;48.786;9.166;2022-07-19T13:24:20;4.03;;;3.50;;
33381;SDS011;21342;48.786;9.166;2022-07-19T13:26:47;4.40;;;4.00;;
33381;SDS011;21342;48.786;9.166;2022-07-19T13:29:16;4.63;;;4.07;;
33381;SDS011;21342;48.786;9.166;2022-07-19T13:31:44;3.60;;;3.30;;
33381;SDS011;21342;48.786;9.166;2022-07-19T13:34:12;5.83;;;3.80;;
33381;SDS011;21342;48.786;9.166;2022-07-19T13:36:39;5.90;;;4.10;;
33381;SDS011;21342;48.786;9.166;2022-07-19T13:39:07;5.17;;;4.20;;
33381;SDS011;21342;48.786;9.166;2022-07-19T13:41:36;4.00;;;3.30;;
33381;SDS011;21342;48.786;9.166;2022-07-19T13:44:04;5.17;;;3.30;;
33381;SDS011;21342;48.786;9.166;2022-07-19T13:46:33;5.77;;;3.67;;
33381;SDS011;21342;48.786;9.166;2022-07-19T13:49:00;3.97;;;3.57;;
33381;SDS011;21342;48.786;9.166;2022-07-19T13:51:28;4.70;;;3.80;;
33381;SDS011;21342;48.786;9.166;2022-07-19T13:53:55;4.10;;;3.70;;
33381;SDS011;21342;48.786;9.166;2022-07-19T13:56:22;3.93;;;3.60;;
33381;SDS011;21342;48.786;9.166;2022-07-19T13:58:49;5.40;;;3.57;;
33381;SDS011;21342;48.786;9.166;2022-07-19T14:01:18;5.57;;;3.60;;
33381;SDS011;21342;48.786;9.166;2022-07-19T14:03:47;5.40;;;4.00;;
33381;SDS011;21342;48.786;9.166;2022-07-19T14:06:14;4.40;;;3.33;;
33381;SDS011;21342;48.786;9.166;2022-07-19T14:08:42;4.53;;;3.40;;
33381;SDS011;21342;48.786;9.166;2022-07-19T14:11:09;5.67;;;3.67;;
33381;SDS011;21342;48.786;9.166;2022-07-19T14:13:37;4.30;;;3.23;;
33381;SDS011;21342;48.786;9.166;2022-07-19T14:16:05;4.03;;;2.83;;
33381;SDS011;21342;48.786;9.166;2022-07-19T14:18:32;3.83;;;3.40;;
33381;SDS011;21342;48.786;9.166;2022-07-19T14:21:01;6.57;;;3.90;;
33381;SDS011;21342;48.786;9.166;2022-07-19T14:23:29;6.43;;;4.07;;
33381;SDS011;21342;48.786;9.166;2022-07-19T14:25:56;6.13;;;3.07;;
33381;SDS011;21342;48.786;9.166;2022-07-19T14:28:24;15.97;;;5.67;;
33381;SDS011;21342;48.786;9.166;2022-07-19T14:30:51;6.23;;;3.93;;
33381;SDS011;21342;48.786;9.166;2022-07-19T14:33:18;5.13;;;3.70;;
33381;SDS011;21342;48.786;9.166;2022-07-19T14:35:46;4.13;;;3.63;;
33381;SDS011;21342;48.786;9.166;2022-07-19T14:38:14;3.67;;;3.37;;
33381;SDS011;21342;48.786;9.166;2022-07-19T14:40:41;7.13;;;3.90;;
33381;SDS011;21342;48.786;9.166;2022-07-19T14:43:09;6.70;;;4.10;;
33381;SDS011;21342;48.786;9.166;2022-07-19T14:45:36;3.70;;;3.40;;
33381;SDS011;21342;48.786;9.166;2022-07-19T14:48:04;4.47;;;3.70;;
33381;SDS011;21342;48.786;9.166;2022-07-19T14:50:32;4.13;;;3.60;;
33381;SDS011;21342;48.786;9.166;2022-07-19T14:53:00;3.73;;;2.97;;
33381;SDS011;21342;48.786;9.166;2022-07-19T14:55:28;6.17;;;3.80;;
33381;SDS011;21342;48.786;9.166;2022-07-19T14:57:55;4.53;;;3.53;;
33381;SDS011;21342;48.786;9.166;2022-07-19T15:00:23;4.23;;;3.70;;
33381;SDS011;21342;48.786;9.166;2022-07-19T15:02:50;4.07;;;3.43;;
33381;SDS011;21342;48.786;9.166;2022-07-19T15:05:17;3.83;;;3.40;;
33381;SDS011;21342;48.786;9.166;2022-07-19T15:07:45;3.83;;;3.40;;
33381;SDS011;21342;48.786;9.166;2022-07-19T15:10:12;5.40;;;4.60;;
33381;SDS011;21342;48.786;9.166;2022-07-19T15:12:41;6.60;;;3.77;;
33381;SDS011;21342;48.786;9.166;2022-07-19T15:15:08;4.10;;;3.30;;
33381;SDS011;21342;48.786;9.166;2022-07-19T15:17:36;6.63;;;3.60;;
33381;SDS011;21342;48.786;9.166;2022-07-19T15:20:03;4.63;;;3.80;;
33381;SDS011;21342;48.786;9.166;2022-07-19T15:22:31;8.87;;;3.53;;